sensor_id;sensor_type;location;lat;lon;timestamp;pressure;altitude;pressure_sealevel;temperature;humidity
75247;BME280;63844;50.042;19.224;2023-08-06T00:00:09;99384.98;;;24.83;63.82
75247;BME280;63844;50.042;19.224;2023-08-06T00:01:44;99386.14;;;24.82;63.80
75247;BME280;63844;50.042;19.224;2023-08-06T00:03:19;99379.45;;;24.82;63.95
75247;BME280;63844;50.042;19.224;2023-08-06T00:04:55;99376.30;;;24.81;64.08
75247;BME280;63844;50.042;19.224;2023-08-06T00:06:30;99374.58;;;24.81;63.98
75247;BME280;63844;50.042;19.224;2023-08-06T00:08:05;99371.29;;;24.81;63.89
75247;BME280;63844;50.042;19.224;2023-08-06T00:09:41;99371.77;;;24.80;64.03
75247;BME280;63844;50.042;19.224;2023-08-06T00:11:16;99369.02;;;24.80;63.82
75247;BME280;63844;50.042;19.224;2023-08-06T00:12:51;99377.21;;;24.80;64.00
75247;BME280;63844;50.042;19.224;2023-08-06T00:14:27;99387.04;;;24.79;64.29
75247;BME280;63844;50.042;19.224;2023-08-06T00:16:10;99401.92;;;24.79;64.20
75247;BME280;63844;50.042;19.224;2023-08-06T00:17:45;99407.05;;;24.78;64.33
75247;BME280;63844;50.042;19.224;2023-08-06T00:19:20;99409.84;;;24.78;64.43
75247;BME280;63844;50.042;19.224;2023-08-06T00:20:56;99411.34;;;24.77;64.58
75247;BME280;63844;50.042;19.224;2023-08-06T00:22:37;99407.77;;;24.77;64.63
75247;BME280;63844;50.042;19.224;2023-08-06T00:24:13;99407.52;;;24.76;64.69
75247;BME280;63844;50.042;19.224;2023-08-06T00:25:48;99403.75;;;24.76;64.84
75247;BME280;63844;50.042;19.224;2023-08-06T00:27:24;99404.04;;;24.73;65.05
75247;BME280;63844;50.042;19.224;2023-08-06T00:29:00;99403.74;;;24.73;64.84
75247;BME280;63844;50.042;19.224;2023-08-06T00:30:35;99398.77;;;24.74;65.07
75247;BME280;63844;50.042;19.224;2023-08-06T00:32:10;99398.36;;;24.74;65.09
75247;BME280;63844;50.042;19.224;2023-08-06T00:33:46;99388.93;;;24.74;65.00
75247;BME280;63844;50.042;19.224;2023-08-06T00:35:21;99380.68;;;24.75;64.97
75247;BME280;63844;50.042;19.224;2023-08-06T00:36:56;99374.25;;;24.76;65.13
75247;BME280;63844;50.042;19.224;2023-08-06T00:38:32;99366.53;;;24.77;65.04
75247;BME280;63844;50.042;19.224;2023-08-06T00:40:07;99365.69;;;24.78;65.06
75247;BME280;63844;50.042;19.224;2023-08-06T00:41:43;99364.64;;;24.79;65.32
75247;BME280;63844;50.042;19.224;2023-08-06T00:43:18;99362.37;;;24.80;65.08
75247;BME280;63844;50.042;19.224;2023-08-06T00:44:54;99352.77;;;24.81;64.82
75247;BME280;63844;50.042;19.224;2023-08-06T00:46:30;99345.23;;;24.82;64.94
75247;BME280;63844;50.042;19.224;2023-08-06T00:48:06;99340.77;;;24.83;64.81
75247;BME280;63844;50.042;19.224;2023-08-06T00:49:42;99346.64;;;24.84;64.76
75247;BME280;63844;50.042;19.224;2023-08-06T00:51:18;99342.09;;;24.84;64.78
75247;BME280;63844;50.042;19.224;2023-08-06T00:52:54;99338.42;;;24.83;64.78
75247;BME280;63844;50.042;19.224;2023-08-06T00:54:30;99330.08;;;24.83;64.68
75247;BME280;63844;50.042;19.224;2023-08-06T00:56:07;99325.57;;;24.83;64.56
75247;BME280;63844;50.042;19.224;2023-08-06T00:57:44;99319.52;;;24.84;64.53
75247;BME280;63844;50.042;19.224;2023-08-06T00:59:19;99303.55;;;24.84;64.51
75247;BME280;63844;50.042;19.224;2023-08-06T01:00:55;99296.64;;;24.84;64.27
75247;BME280;63844;50.042;19.224;2023-08-06T01:02:30;99286.20;;;24.83;64.40
75247;BME280;63844;50.042;19.224;2023-08-06T01:04:06;99278.55;;;24.82;64.45
75247;BME280;63844;50.042;19.224;2023-08-06T01:05:42;99277.25;;;24.83;64.11
75247;BME280;63844;50.042;19.224;2023-08-06T01:14:26;99253.42;;;24.79;64.21
75247;BME280;63844;50.042;19.224;2023-08-06T01:16:03;99251.33;;;24.79;64.15
75247;BME280;63844;50.042;19.224;2023-08-06T01:17:41;99240.38;;;24.78;64.15
75247;BME280;63844;50.042;19.224;2023-08-06T01:19:18;99232.86;;;24.77;64.23
75247;BME280;63844;50.042;19.224;2023-08-06T01:20:53;99225.99;;;24.77;64.28
75247;BME280;63844;50.042;19.224;2023-08-06T01:22:29;99226.23;;;24.77;64.24
75247;BME280;63844;50.042;19.224;2023-08-06T01:24:04;99216.16;;;24.76;64.39
75247;BME280;63844;50.042;19.224;2023-08-06T01:27:49;99189.45;;;24.73;64.28
75247;BME280;63844;50.042;19.224;2023-08-06T01:29:47;99182.34;;;24.71;64.59
75247;BME280;63844;50.042;19.224;2023-08-06T01:31:30;99171.96;;;24.70;64.48
75247;BME280;63844;50.042;19.224;2023-08-06T01:33:09;99162.92;;;24.69;64.54
75247;BME280;63844;50.042;19.224;2023-08-06T01:34:45;99157.93;;;24.68;64.46
75247;BME280;63844;50.042;19.224;2023-08-06T01:36:23;99153.70;;;24.67;64.67
75247;BME280;63844;50.042;19.224;2023-08-06T01:38:02;99152.23;;;24.66;64.59
75247;BME280;63844;50.042;19.224;2023-08-06T01:39:40;99145.42;;;24.64;64.60
75247;BME280;63844;50.042;19.224;2023-08-06T01:41:19;99139.78;;;24.63;64.56
75247;BME280;63844;50.042;19.224;2023-08-06T01:42:55;99134.63;;;24.62;64.59
75247;BME280;63844;50.042;19.224;2023-08-06T01:44:30;99131.44;;;24.61;64.64
75247;BME280;63844;50.042;19.224;2023-08-06T01:46:05;99128.52;;;24.60;64.64
75247;BME280;63844;50.042;19.224;2023-08-06T01:47:41;99123.14;;;24.60;64.77
75247;BME280;63844;50.042;19.224;2023-08-06T01:49:16;99122.89;;;24.59;64.71
75247;BME280;63844;50.042;19.224;2023-08-06T01:50:51;99125.60;;;24.59;64.89
75247;BME280;63844;50.042;19.224;2023-08-06T01:52:27;99118.61;;;24.58;64.75
75247;BME280;63844;50.042;19.224;2023-08-06T01:54:03;99114.86;;;24.58;64.69
75247;BME280;63844;50.042;19.224;2023-08-06T01:55:38;99115.33;;;24.58;64.75
75247;BME280;63844;50.042;19.224;2023-08-06T01:57:13;99115.66;;;24.56;64.73
75247;BME280;63844;50.042;19.224;2023-08-06T01:58:49;99114.08;;;24.57;64.69
75247;BME280;63844;50.042;19.224;2023-08-06T02:00:24;99109.36;;;24.57;64.93
75247;BME280;63844;50.042;19.224;2023-08-06T02:02:00;99113.48;;;24.57;64.92
75247;BME280;63844;50.042;19.224;2023-08-06T02:03:38;99113.44;;;24.58;64.90
75247;BME280;63844;50.042;19.224;2023-08-06T02:05:13;99109.31;;;24.59;64.86
75247;BME280;63844;50.042;19.224;2023-08-06T02:06:49;99108.35;;;24.59;64.87
75247;BME280;63844;50.042;19.224;2023-08-06T02:08:24;99108.00;;;24.61;64.84
75247;BME280;63844;50.042;19.224;2023-08-06T02:09:59;99108.73;;;24.62;64.93
75247;BME280;63844;50.042;19.224;2023-08-06T02:11:35;99106.38;;;24.63;65.16
75247;BME280;63844;50.042;19.224;2023-08-06T02:13:10;99102.08;;;24.64;65.02
75247;BME280;63844;50.042;19.224;2023-08-06T02:14:45;99104.09;;;24.66;65.13
75247;BME280;63844;50.042;19.224;2023-08-06T02:16:21;99103.41;;;24.67;64.87
75247;BME280;63844;50.042;19.224;2023-08-06T02:17:57;99104.42;;;24.68;64.89
75247;BME280;63844;50.042;19.224;2023-08-06T02:19:32;99096.20;;;24.68;64.57
75247;BME280;63844;50.042;19.224;2023-08-06T02:21:07;99091.61;;;24.69;64.59
75247;BME280;63844;50.042;19.224;2023-08-06T02:22:43;99089.36;;;24.70;64.67
75247;BME280;63844;50.042;19.224;2023-08-06T02:24:18;99083.35;;;24.70;64.62
75247;BME280;63844;50.042;19.224;2023-08-06T02:26:11;99082.19;;;24.68;64.49
75247;BME280;63844;50.042;19.224;2023-08-06T02:27:47;99085.41;;;24.68;64.49
75247;BME280;63844;50.042;19.224;2023-08-06T02:29:22;99084.20;;;24.67;64.61
75247;BME280;63844;50.042;19.224;2023-08-06T02:30:58;99078.77;;;24.67;64.42
75247;BME280;63844;50.042;19.224;2023-08-06T02:32:33;99076.41;;;24.66;64.46
75247;BME280;63844;50.042;19.224;2023-08-06T02:34:11;99076.27;;;24.64;64.61
75247;BME280;63844;50.042;19.224;2023-08-06T02:35:46;99084.58;;;24.64;64.28
75247;BME280;63844;50.042;19.224;2023-08-06T02:37:21;99083.36;;;24.64;64.44
75247;BME280;63844;50.042;19.224;2023-08-06T02:38:57;99085.45;;;24.63;64.37
75247;BME280;63844;50.042;19.224;2023-08-06T02:40:32;99088.67;;;24.62;64.51
75247;BME280;63844;50.042;19.224;2023-08-06T02:42:07;99089.05;;;24.62;64.38
75247;BME280;63844;50.042;19.224;2023-08-06T02:43:43;99087.21;;;24.62;64.57
75247;BME280;63844;50.042;19.224;2023-08-06T02:45:18;99084.54;;;24.61;64.40
75247;BME280;63844;50.042;19.224;2023-08-06T02:46:53;99077.10;;;24.62;64.46
75247;BME280;63844;50.042;19.224;2023-08-06T02:48:29;99074.13;;;24.61;64.42
75247;BME280;63844;50.042;19.224;2023-08-06T02:50:05;99072.02;;;24.60;64.49
75247;BME280;63844;50.042;19.224;2023-08-06T02:51:41;99070.85;;;24.60;64.55
75247;BME280;63844;50.042;19.224;2023-08-06T02:53:16;99065.95;;;24.58;64.49
75247;BME280;63844;50.042;19.224;2023-08-06T02:54:51;99062.93;;;24.58;64.64
75247;BME280;63844;50.042;19.224;2023-08-06T02:56:27;99058.47;;;24.57;64.53
75247;BME280;63844;50.042;19.224;2023-08-06T02:58:02;99059.23;;;24.57;64.39
75247;BME280;63844;50.042;19.224;2023-08-06T02:59:38;99055.86;;;24.56;64.63
75247;BME280;63844;50.042;19.224;2023-08-06T03:01:13;99053.31;;;24.57;64.62
75247;BME280;63844;50.042;19.224;2023-08-06T03:02:49;99049.21;;;24.56;64.66
75247;BME280;63844;50.042;19.224;2023-08-06T03:04:24;99048.17;;;24.56;64.58
75247;BME280;63844;50.042;19.224;2023-08-06T03:06:00;99044.52;;;24.54;64.65
75247;BME280;63844;50.042;19.224;2023-08-06T03:07:36;99038.05;;;24.54;64.64
75247;BME280;63844;50.042;19.224;2023-08-06T03:09:12;99033.98;;;24.53;64.66
75247;BME280;63844;50.042;19.224;2023-08-06T03:10:48;99028.04;;;24.52;64.69
75247;BME280;63844;50.042;19.224;2023-08-06T03:12:24;99025.09;;;24.51;64.66
75247;BME280;63844;50.042;19.224;2023-08-06T03:14:00;99023.05;;;24.50;64.81
75247;BME280;63844;50.042;19.224;2023-08-06T03:15:35;99022.30;;;24.50;64.90
75247;BME280;63844;50.042;19.224;2023-08-06T03:17:10;99021.20;;;24.49;64.63
75247;BME280;63844;50.042;19.224;2023-08-06T03:18:46;99019.81;;;24.48;64.90
75247;BME280;63844;50.042;19.224;2023-08-06T03:20:21;99015.20;;;24.47;64.86
75247;BME280;63844;50.042;19.224;2023-08-06T03:21:57;99014.94;;;24.46;64.97
75247;BME280;63844;50.042;19.224;2023-08-06T03:23:32;99006.64;;;24.46;65.00
75247;BME280;63844;50.042;19.224;2023-08-06T03:25:08;98998.70;;;24.46;64.85
75247;BME280;63844;50.042;19.224;2023-08-06T03:26:43;98996.19;;;24.43;64.93
75247;BME280;63844;50.042;19.224;2023-08-06T03:28:18;98991.70;;;24.42;64.95
75247;BME280;63844;50.042;19.224;2023-08-06T03:29:54;98990.85;;;24.42;64.95
75247;BME280;63844;50.042;19.224;2023-08-06T03:31:29;98988.38;;;24.41;65.25
75247;BME280;63844;50.042;19.224;2023-08-06T03:33:04;98987.13;;;24.41;65.31
75247;BME280;63844;50.042;19.224;2023-08-06T03:34:40;98981.38;;;24.42;65.32
75247;BME280;63844;50.042;19.224;2023-08-06T03:36:15;98973.45;;;24.44;65.46
75247;BME280;63844;50.042;19.224;2023-08-06T03:37:51;98969.66;;;24.45;65.47
75247;BME280;63844;50.042;19.224;2023-08-06T03:39:26;98966.55;;;24.47;65.64
75247;BME280;63844;50.042;19.224;2023-08-06T03:41:01;98964.80;;;24.48;65.50
75247;BME280;63844;50.042;19.224;2023-08-06T03:42:37;98956.35;;;24.49;65.40
75247;BME280;63844;50.042;19.224;2023-08-06T03:44:12;98950.84;;;24.50;65.48
75247;BME280;63844;50.042;19.224;2023-08-06T03:45:47;98943.15;;;24.50;65.28
75247;BME280;63844;50.042;19.224;2023-08-06T03:47:23;98939.11;;;24.51;65.29
75247;BME280;63844;50.042;19.224;2023-08-06T03:48:58;98937.29;;;24.51;65.32
75247;BME280;63844;50.042;19.224;2023-08-06T03:50:33;98934.90;;;24.51;65.28
75247;BME280;63844;50.042;19.224;2023-08-06T03:52:09;98928.51;;;24.50;65.23
75247;BME280;63844;50.042;19.224;2023-08-06T03:53:44;98928.00;;;24.50;65.31
75247;BME280;63844;50.042;19.224;2023-08-06T03:55:20;98924.27;;;24.49;65.21
75247;BME280;63844;50.042;19.224;2023-08-06T03:56:55;98926.36;;;24.49;65.22
75247;BME280;63844;50.042;19.224;2023-08-06T03:58:31;98924.60;;;24.48;65.27
75247;BME280;63844;50.042;19.224;2023-08-06T04:00:07;98921.04;;;24.48;65.40
75247;BME280;63844;50.042;19.224;2023-08-06T04:01:42;98915.52;;;24.47;65.28
75247;BME280;63844;50.042;19.224;2023-08-06T04:03:18;98913.32;;;24.47;65.23
75247;BME280;63844;50.042;19.224;2023-08-06T04:04:53;98905.25;;;24.47;65.21
75247;BME280;63844;50.042;19.224;2023-08-06T04:06:29;98893.84;;;24.47;65.15
75247;BME280;63844;50.042;19.224;2023-08-06T04:08:06;98892.73;;;24.45;65.37
75247;BME280;63844;50.042;19.224;2023-08-06T04:09:56;98887.98;;;24.46;65.29
75247;BME280;63844;50.042;19.224;2023-08-06T04:11:32;98883.55;;;24.45;65.32
75247;BME280;63844;50.042;19.224;2023-08-06T04:13:07;98879.07;;;24.43;65.43
75247;BME280;63844;50.042;19.224;2023-08-06T04:14:43;98875.06;;;24.44;65.31
75247;BME280;63844;50.042;19.224;2023-08-06T04:16:18;98869.33;;;24.43;65.53
75247;BME280;63844;50.042;19.224;2023-08-06T04:17:53;98867.90;;;24.43;65.42
75247;BME280;63844;50.042;19.224;2023-08-06T04:19:31;98868.31;;;24.42;65.44
75247;BME280;63844;50.042;19.224;2023-08-06T04:21:06;98861.67;;;24.42;65.45
75247;BME280;63844;50.042;19.224;2023-08-06T04:22:41;98860.52;;;24.40;65.65
75247;BME280;63844;50.042;19.224;2023-08-06T04:24:16;98858.17;;;24.39;65.67
75247;BME280;63844;50.042;19.224;2023-08-06T04:25:52;98859.70;;;24.37;65.73
75247;BME280;63844;50.042;19.224;2023-08-06T04:27:27;98859.10;;;24.36;65.78
75247;BME280;63844;50.042;19.224;2023-08-06T04:29:03;98859.24;;;24.35;65.80
75247;BME280;63844;50.042;19.224;2023-08-06T04:30:38;98864.42;;;24.34;65.77
75247;BME280;63844;50.042;19.224;2023-08-06T04:32:15;98861.73;;;24.34;65.94
75247;BME280;63844;50.042;19.224;2023-08-06T04:33:51;98859.15;;;24.33;66.12
75247;BME280;63844;50.042;19.224;2023-08-06T04:35:26;98862.83;;;24.34;66.30
75247;BME280;63844;50.042;19.224;2023-08-06T04:37:02;98859.95;;;24.34;66.21
75247;BME280;63844;50.042;19.224;2023-08-06T04:38:38;98858.65;;;24.34;66.37
75247;BME280;63844;50.042;19.224;2023-08-06T04:40:16;98857.77;;;24.35;66.41
75247;BME280;63844;50.042;19.224;2023-08-06T04:41:52;98855.08;;;24.38;66.41
75247;BME280;63844;50.042;19.224;2023-08-06T04:43:27;98854.95;;;24.39;66.44
75247;BME280;63844;50.042;19.224;2023-08-06T04:45:03;98853.30;;;24.41;66.30
75247;BME280;63844;50.042;19.224;2023-08-06T04:46:38;98850.46;;;24.42;66.29
75247;BME280;63844;50.042;19.224;2023-08-06T04:48:14;98845.41;;;24.41;66.22
75247;BME280;63844;50.042;19.224;2023-08-06T04:49:49;98842.23;;;24.43;66.16
75247;BME280;63844;50.042;19.224;2023-08-06T04:51:25;98843.30;;;24.42;66.06
75247;BME280;63844;50.042;19.224;2023-08-06T04:53:00;98837.52;;;24.42;66.12
75247;BME280;63844;50.042;19.224;2023-08-06T04:54:35;98835.00;;;24.42;66.03
75247;BME280;63844;50.042;19.224;2023-08-06T04:56:11;98833.48;;;24.41;66.20
75247;BME280;63844;50.042;19.224;2023-08-06T04:57:46;98827.24;;;24.40;66.06
75247;BME280;63844;50.042;19.224;2023-08-06T04:59:22;98823.70;;;24.40;66.23
75247;BME280;63844;50.042;19.224;2023-08-06T05:00:57;98819.30;;;24.38;66.36
75247;BME280;63844;50.042;19.224;2023-08-06T05:02:32;98817.54;;;24.37;66.34
75247;BME280;63844;50.042;19.224;2023-08-06T05:04:09;98817.33;;;24.38;66.22
75247;BME280;63844;50.042;19.224;2023-08-06T05:05:46;98818.37;;;24.38;66.28
75247;BME280;63844;50.042;19.224;2023-08-06T05:07:21;98814.48;;;24.37;66.30
75247;BME280;63844;50.042;19.224;2023-08-06T05:08:57;98817.89;;;24.36;66.41
75247;BME280;63844;50.042;19.224;2023-08-06T05:10:32;98818.44;;;24.36;66.42
75247;BME280;63844;50.042;19.224;2023-08-06T05:12:08;98813.63;;;24.35;66.41
75247;BME280;63844;50.042;19.224;2023-08-06T05:13:44;98812.24;;;24.35;66.40
75247;BME280;63844;50.042;19.224;2023-08-06T05:15:19;98807.36;;;24.35;66.47
75247;BME280;63844;50.042;19.224;2023-08-06T05:16:55;98802.27;;;24.35;66.50
75247;BME280;63844;50.042;19.224;2023-08-06T05:18:30;98798.13;;;24.35;66.54
75247;BME280;63844;50.042;19.224;2023-08-06T05:20:06;98798.85;;;24.35;66.47
75247;BME280;63844;50.042;19.224;2023-08-06T05:21:42;98796.20;;;24.34;66.55
75247;BME280;63844;50.042;19.224;2023-08-06T05:23:17;98791.11;;;24.34;66.61
75247;BME280;63844;50.042;19.224;2023-08-06T05:24:52;98794.40;;;24.34;66.34
75247;BME280;63844;50.042;19.224;2023-08-06T05:26:28;98791.99;;;24.35;66.52
75247;BME280;63844;50.042;19.224;2023-08-06T05:28:04;98791.46;;;24.36;66.90
75247;BME280;63844;50.042;19.224;2023-08-06T05:29:43;98790.65;;;24.38;66.92
75247;BME280;63844;50.042;19.224;2023-08-06T05:31:20;98788.01;;;24.40;66.84
75247;BME280;63844;50.042;19.224;2023-08-06T05:32:56;98783.02;;;24.43;67.10
75247;BME280;63844;50.042;19.224;2023-08-06T05:34:31;98781.96;;;24.46;67.04
75247;BME280;63844;50.042;19.224;2023-08-06T05:36:07;98779.23;;;24.47;66.82
75247;BME280;63844;50.042;19.224;2023-08-06T05:37:42;98775.62;;;24.49;66.77
75247;BME280;63844;50.042;19.224;2023-08-06T05:39:17;98772.24;;;24.50;66.61
75247;BME280;63844;50.042;19.224;2023-08-06T05:40:53;98770.13;;;24.52;66.65
75247;BME280;63844;50.042;19.224;2023-08-06T05:42:28;98770.94;;;24.54;66.56
75247;BME280;63844;50.042;19.224;2023-08-06T05:44:04;98767.95;;;24.55;66.29
75247;BME280;63844;50.042;19.224;2023-08-06T05:45:44;98764.81;;;24.55;66.48
75247;BME280;63844;50.042;19.224;2023-08-06T05:47:20;98762.52;;;24.56;66.22
75247;BME280;63844;50.042;19.224;2023-08-06T05:48:55;98757.71;;;24.57;66.39
75247;BME280;63844;50.042;19.224;2023-08-06T05:50:31;98754.22;;;24.58;66.28
75247;BME280;63844;50.042;19.224;2023-08-06T05:52:06;98750.55;;;24.58;66.23
75247;BME280;63844;50.042;19.224;2023-08-06T05:53:43;98746.91;;;24.58;66.34
75247;BME280;63844;50.042;19.224;2023-08-06T05:55:20;98746.79;;;24.59;66.26
75247;BME280;63844;50.042;19.224;2023-08-06T05:56:55;98745.29;;;24.59;66.23
75247;BME280;63844;50.042;19.224;2023-08-06T05:58:30;98738.89;;;24.60;66.24
75247;BME280;63844;50.042;19.224;2023-08-06T06:00:07;98736.93;;;24.59;66.17
75247;BME280;63844;50.042;19.224;2023-08-06T06:01:43;98733.27;;;24.60;66.00
75247;BME280;63844;50.042;19.224;2023-08-06T06:03:18;98731.27;;;24.60;66.05
75247;BME280;63844;50.042;19.224;2023-08-06T06:04:53;98725.59;;;24.60;66.17
75247;BME280;63844;50.042;19.224;2023-08-06T06:06:29;98728.71;;;24.60;66.03
75247;BME280;63844;50.042;19.224;2023-08-06T06:08:04;98726.80;;;24.61;66.03
75247;BME280;63844;50.042;19.224;2023-08-06T06:09:40;98723.45;;;24.60;66.23
75247;BME280;63844;50.042;19.224;2023-08-06T06:11:15;98726.48;;;24.61;66.23
75247;BME280;63844;50.042;19.224;2023-08-06T06:12:51;98727.02;;;24.61;66.08
75247;BME280;63844;50.042;19.224;2023-08-06T06:14:26;98726.64;;;24.61;66.12
75247;BME280;63844;50.042;19.224;2023-08-06T06:16:01;98723.51;;;24.61;66.12
75247;BME280;63844;50.042;19.224;2023-08-06T06:17:37;98721.21;;;24.61;66.12
75247;BME280;63844;50.042;19.224;2023-08-06T06:19:12;98722.22;;;24.61;66.11
75247;BME280;63844;50.042;19.224;2023-08-06T06:20:48;98717.24;;;24.62;66.24
75247;BME280;63844;50.042;19.224;2023-08-06T06:22:24;98716.27;;;24.63;66.20
75247;BME280;63844;50.042;19.224;2023-08-06T06:23:59;98716.02;;;24.64;66.42
75247;BME280;63844;50.042;19.224;2023-08-06T06:25:34;98713.14;;;24.66;66.35
75247;BME280;63844;50.042;19.224;2023-08-06T06:27:10;98715.65;;;24.67;66.55
75247;BME280;63844;50.042;19.224;2023-08-06T06:28:45;98710.16;;;24.69;66.38
75247;BME280;63844;50.042;19.224;2023-08-06T06:30:21;98706.81;;;24.71;66.50
75247;BME280;63844;50.042;19.224;2023-08-06T06:31:57;98700.33;;;24.74;66.53
75247;BME280;63844;50.042;19.224;2023-08-06T06:33:32;98701.09;;;24.76;66.31
75247;BME280;63844;50.042;19.224;2023-08-06T06:35:09;98695.47;;;24.78;66.05
75247;BME280;63844;50.042;19.224;2023-08-06T06:36:44;98696.77;;;24.80;66.09
75247;BME280;63844;50.042;19.224;2023-08-06T06:38:20;98693.52;;;24.81;65.99
75247;BME280;63844;50.042;19.224;2023-08-06T06:39:55;98696.66;;;24.82;65.90
75247;BME280;63844;50.042;19.224;2023-08-06T06:41:31;98700.92;;;24.83;65.70
75247;BME280;63844;50.042;19.224;2023-08-06T06:43:08;98702.56;;;24.84;65.84
75247;BME280;63844;50.042;19.224;2023-08-06T06:44:43;98700.10;;;24.85;65.79
75247;BME280;63844;50.042;19.224;2023-08-06T06:46:18;98697.27;;;24.86;65.80
75247;BME280;63844;50.042;19.224;2023-08-06T06:47:54;98693.64;;;24.86;65.52
75247;BME280;63844;50.042;19.224;2023-08-06T06:49:29;98686.77;;;24.86;65.53
75247;BME280;63844;50.042;19.224;2023-08-06T06:51:04;98686.95;;;24.86;65.49
75247;BME280;63844;50.042;19.224;2023-08-06T06:52:40;98685.23;;;24.85;65.49
75247;BME280;63844;50.042;19.224;2023-08-06T06:54:16;98685.61;;;24.85;65.27
75247;BME280;63844;50.042;19.224;2023-08-06T06:55:51;98682.80;;;24.84;65.38
75247;BME280;63844;50.042;19.224;2023-08-06T06:57:27;98676.78;;;24.83;65.52
75247;BME280;63844;50.042;19.224;2023-08-06T06:59:02;98674.81;;;24.83;65.37
75247;BME280;63844;50.042;19.224;2023-08-06T07:00:38;98675.65;;;24.84;65.56
75247;BME280;63844;50.042;19.224;2023-08-06T07:02:13;98671.63;;;24.83;65.47
75247;BME280;63844;50.042;19.224;2023-08-06T07:03:49;98671.27;;;24.83;65.48
75247;BME280;63844;50.042;19.224;2023-08-06T07:05:24;98669.30;;;24.83;65.69
75247;BME280;63844;50.042;19.224;2023-08-06T07:06:59;98671.81;;;24.83;65.37
75247;BME280;63844;50.042;19.224;2023-08-06T07:08:35;98670.45;;;24.82;65.41
75247;BME280;63844;50.042;19.224;2023-08-06T07:10:10;98672.42;;;24.82;65.35
75247;BME280;63844;50.042;19.224;2023-08-06T07:11:46;98673.50;;;24.82;65.59
75247;BME280;63844;50.042;19.224;2023-08-06T07:13:22;98678.48;;;24.83;65.38
75247;BME280;63844;50.042;19.224;2023-08-06T07:14:57;98677.36;;;24.83;65.36
75247;BME280;63844;50.042;19.224;2023-08-06T07:16:33;98676.15;;;24.83;65.47
75247;BME280;63844;50.042;19.224;2023-08-06T07:18:09;98674.27;;;24.83;65.49
75247;BME280;63844;50.042;19.224;2023-08-06T07:19:45;98679.45;;;24.84;65.38
75247;BME280;63844;50.042;19.224;2023-08-06T07:21:20;98679.07;;;24.82;65.54
75247;BME280;63844;50.042;19.224;2023-08-06T07:22:56;98678.74;;;24.84;65.58
75247;BME280;63844;50.042;19.224;2023-08-06T07:24:31;98677.66;;;24.85;65.61
75247;BME280;63844;50.042;19.224;2023-08-06T07:26:07;98677.39;;;24.86;65.71
75247;BME280;63844;50.042;19.224;2023-08-06T07:27:42;98678.05;;;24.86;65.48
75247;BME280;63844;50.042;19.224;2023-08-06T07:29:21;98678.41;;;24.87;65.81
75247;BME280;63844;50.042;19.224;2023-08-06T07:30:57;98677.15;;;24.90;65.75
75247;BME280;63844;50.042;19.224;2023-08-06T07:32:32;98674.77;;;24.91;65.98
75247;BME280;63844;50.042;19.224;2023-08-06T07:34:08;98673.65;;;24.93;65.94
75247;BME280;63844;50.042;19.224;2023-08-06T07:35:43;98666.52;;;24.95;65.88
75247;BME280;63844;50.042;19.224;2023-08-06T07:37:18;98670.33;;;24.97;66.07
75247;BME280;63844;50.042;19.224;2023-08-06T07:38:54;98670.96;;;24.99;65.75
75247;BME280;63844;50.042;19.224;2023-08-06T07:40:31;98666.00;;;25.01;65.88
75247;BME280;63844;50.042;19.224;2023-08-06T07:42:07;98672.31;;;25.03;65.54
75247;BME280;63844;50.042;19.224;2023-08-06T07:43:42;98671.95;;;25.04;65.37
75247;BME280;63844;50.042;19.224;2023-08-06T07:45:18;98667.34;;;25.04;65.43
75247;BME280;63844;50.042;19.224;2023-08-06T07:46:53;98665.76;;;25.04;65.41
75247;BME280;63844;50.042;19.224;2023-08-06T07:48:29;98670.23;;;25.04;65.40
75247;BME280;63844;50.042;19.224;2023-08-06T07:50:05;98666.80;;;25.04;65.36
75247;BME280;63844;50.042;19.224;2023-08-06T07:51:40;98666.67;;;25.04;65.26
75247;BME280;63844;50.042;19.224;2023-08-06T07:53:16;98667.35;;;25.04;65.34
75247;BME280;63844;50.042;19.224;2023-08-06T07:54:51;98663.49;;;25.05;65.49
75247;BME280;63844;50.042;19.224;2023-08-06T07:56:26;98659.73;;;25.05;65.46
75247;BME280;63844;50.042;19.224;2023-08-06T07:58:02;98667.10;;;25.05;65.52
75247;BME280;63844;50.042;19.224;2023-08-06T07:59:37;98668.60;;;25.04;65.47
75247;BME280;63844;50.042;19.224;2023-08-06T08:01:12;98666.05;;;25.05;65.40
75247;BME280;63844;50.042;19.224;2023-08-06T08:02:48;98662.00;;;25.05;65.31
75247;BME280;63844;50.042;19.224;2023-08-06T08:04:24;98660.73;;;25.05;65.40
75247;BME280;63844;50.042;19.224;2023-08-06T08:05:59;98662.20;;;25.05;65.32
75247;BME280;63844;50.042;19.224;2023-08-06T08:07:35;98659.29;;;25.05;65.33
75247;BME280;63844;50.042;19.224;2023-08-06T08:09:10;98664.05;;;25.05;65.32
75247;BME280;63844;50.042;19.224;2023-08-06T08:10:46;98661.45;;;25.04;65.30
75247;BME280;63844;50.042;19.224;2023-08-06T08:12:22;98655.90;;;25.03;65.76
75247;BME280;63844;50.042;19.224;2023-08-06T08:13:57;98653.57;;;25.03;65.82
75247;BME280;63844;50.042;19.224;2023-08-06T08:15:34;98654.82;;;25.03;65.51
75247;BME280;63844;50.042;19.224;2023-08-06T08:17:10;98651.43;;;25.03;65.33
75247;BME280;63844;50.042;19.224;2023-08-06T08:18:46;98646.28;;;25.04;65.39
75247;BME280;63844;50.042;19.224;2023-08-06T08:20:21;98643.32;;;25.04;65.52
75247;BME280;63844;50.042;19.224;2023-08-06T08:21:57;98648.25;;;25.04;65.33
75247;BME280;63844;50.042;19.224;2023-08-06T08:23:32;98643.10;;;25.04;65.96
75247;BME280;63844;50.042;19.224;2023-08-06T08:25:08;98640.77;;;25.03;65.85
75247;BME280;63844;50.042;19.224;2023-08-06T08:26:43;98635.75;;;25.04;65.57
75247;BME280;63844;50.042;19.224;2023-08-06T08:28:19;98640.23;;;25.04;66.00
75247;BME280;63844;50.042;19.224;2023-08-06T08:29:54;98636.68;;;25.05;65.93